Time;durP1;ratioP1;P1;durP2;ratioP2;P2;SDS_P1;SDS_P2;PMS_P1;PMS_P2;Temp;Humidity;BMP_temperature;BMP_pressure;BME280_temperature;BME280_humidity;BME280_pressure;Samples;Min_cycle;Max_cycle;Signal;HPM_P1;HPM_P2
2022/08/03 00:01:43;;;;;;;7.07;5.50;;;22.20;99.90;;;;;;5074355;28;20480;-74
2022/08/03 00:04:11;;;;;;;4.33;3.93;;;22.20;99.90;;;;;;5070491;28;21182;-74
2022/08/03 00:06:42;;;;;;;5.10;4.30;;;22.20;99.90;;;;;;5072884;28;20473;-73
2022/08/03 00:09:09;;;;;;;8.13;4.83;;;22.10;99.90;;;;;;5070684;28;20485;-73
2022/08/03 00:11:36;;;;;;;8.77;4.50;;;22.10;99.90;;;;;;5072536;28;20532;-74
2022/08/03 00:14:03;;;;;;;5.43;4.87;;;22.10;99.90;;;;;;5071570;28;20616;-74
2022/08/03 00:16:32;;;;;;;5.20;4.70;;;22.10;99.90;;;;;;5072334;28;20462;-73
2022/08/03 00:18:59;;;;;;;4.53;4.10;;;22.00;99.90;;;;;;5067491;28;20476;-74
2022/08/03 00:21:26;;;;;;;7.80;4.53;;;21.90;99.90;;;;;;5068150;28;20528;-74
2022/08/03 00:23:52;;;;;;;5.50;4.30;;;21.80;99.90;;;;;;5057062;28;20477;-73
2022/08/03 00:26:19;;;;;;;3.80;3.40;;;21.80;99.90;;;;;;5059106;28;20444;-73
2022/08/03 00:28:46;;;;;;;7.53;5.87;;;21.80;99.90;;;;;;5060939;28;20477;-73
2022/08/03 00:31:13;;;;;;;5.50;4.90;;;21.80;99.90;;;;;;5060930;28;20473;-73
2022/08/03 00:33:41;;;;;;;6.03;4.93;;;21.70;99.90;;;;;;5069020;28;20504;-73
2022/08/03 00:36:08;;;;;;;5.10;4.33;;;21.70;99.90;;;;;;5075184;28;20532;-74
2022/08/03 00:38:35;;;;;;;5.30;4.80;;;21.70;99.90;;;;;;5065476;28;20440;-71
2022/08/03 00:41:02;;;;;;;5.60;4.60;;;21.70;99.90;;;;;;5060701;28;20541;-71
2022/08/03 00:43:29;;;;;;;5.37;4.83;;;21.60;99.90;;;;;;5066475;28;20551;-74
2022/08/03 00:45:56;;;;;;;5.40;4.90;;;21.60;99.90;;;;;;5056771;28;20446;-73
2022/08/03 00:48:24;;;;;;;5.13;4.63;;;21.50;99.90;;;;;;5060586;28;20479;-74
2022/08/03 00:50:54;;;;;;;4.90;4.40;;;21.50;99.90;;;;;;5065015;28;20544;-74
2022/08/03 00:53:22;;;;;;;9.13;5.47;;;21.50;99.90;;;;;;5073684;28;20500;-73
2022/08/03 00:55:49;;;;;;;6.47;5.30;;;21.60;99.90;;;;;;5061110;28;20455;-73
2022/08/03 00:58:16;;;;;;;4.90;4.10;;;21.50;99.90;;;;;;5058014;28;20444;-73
2022/08/03 01:00:43;;;;;;;4.97;4.47;;;21.60;99.90;;;;;;5056239;28;20495;-73
2022/08/03 01:03:10;;;;;;;4.90;4.40;;;21.60;99.90;;;;;;5063739;28;20543;-74
2022/08/03 01:05:45;;;;;;;5.17;4.67;;;21.60;99.90;;;;;;5057647;28;20891;-74
2022/08/03 01:08:21;;;;;;;4.90;4.40;;;21.50;99.90;;;;;;5065597;28;20588;-74
2022/08/03 01:10:56;;;;;;;4.63;4.10;;;21.40;99.90;;;;;;5037737;28;20488;-73
2022/08/03 01:13:31;;;;;;;5.30;4.80;;;21.20;99.90;;;;;;5048805;28;20548;-74
2022/08/03 01:16:02;;;;;;;12.07;5.80;;;21.40;99.90;;;;;;5038748;28;20555;-73
2022/08/03 01:18:38;;;;;;;13.20;5.20;;;21.30;99.90;;;;;;5055880;28;20931;-73
2022/08/03 01:21:12;;;;;;;4.03;3.63;;;21.20;99.90;;;;;;5057081;28;20885;-73
2022/08/03 01:23:56;;;;;;;6.63;4.27;;;21.20;99.90;;;;;;5057807;28;20889;-74
2022/08/03 01:26:59;;;;;;;6.27;5.63;;;21.20;99.90;;;;;;5066693;28;20456;-73
2022/08/03 01:29:57;;;;;;;6.23;5.30;;;21.10;99.90;;;;;;5066050;28;20846;-73
2022/08/03 01:32:31;;;;;;;4.73;4.33;;;21.00;99.90;;;;;;5062247;28;20505;-73
2022/08/03 01:35:02;;;;;;;5.60;4.00;;;21.00;99.90;;;;;;5067841;28;20468;-73
2022/08/03 01:37:40;;;;;;;7.90;4.90;;;21.10;99.90;;;;;;5081522;28;20453;-73
2022/08/03 01:40:09;;;;;;;6.80;4.60;;;21.00;99.90;;;;;;5048913;28;20439;-73
2022/08/03 01:42:39;;;;;;;6.30;4.50;;;21.00;99.90;;;;;;5062215;28;20444;-74
2022/08/03 01:45:11;;;;;;;5.33;4.83;;;21.00;99.90;;;;;;5069768;28;20540;-74
2022/08/03 01:47:40;;;;;;;5.67;4.70;;;21.00;99.90;;;;;;5065209;28;20538;-73
2022/08/03 01:50:10;;;;;;;5.10;4.50;;;21.00;99.90;;;;;;5063810;28;20473;-73
2022/08/03 01:52:39;;;;;;;7.80;6.80;;;20.90;99.90;;;;;;5066800;28;20444;-73
2022/08/03 01:55:09;;;;;;;4.50;4.07;;;20.90;99.90;;;;;;5063215;28;20470;-73
2022/08/03 01:57:38;;;;;;;5.90;5.30;;;20.90;99.90;;;;;;5061229;28;20870;-74
2022/08/03 02:00:09;;;;;;;9.53;4.60;;;20.80;99.90;;;;;;5064788;28;20948;-74
2022/08/03 02:02:37;;;;;;;5.03;4.63;;;20.80;99.90;;;;;;5056337;28;20541;-73
2022/08/03 02:05:08;;;;;;;7.03;5.03;;;20.80;99.90;;;;;;5062205;28;20556;-72
2022/08/03 02:07:37;;;;;;;7.77;5.53;;;20.80;99.90;;;;;;5054048;28;20539;-74
2022/08/03 02:10:07;;;;;;;6.20;5.33;;;20.80;99.90;;;;;;5053355;28;21065;-72
2022/08/03 02:12:35;;;;;;;6.57;5.00;;;20.80;99.90;;;;;;5061841;28;21015;-74
2022/08/03 02:15:02;;;;;;;7.50;6.00;;;20.80;99.90;;;;;;5055144;28;20473;-74
2022/08/03 02:17:32;;;;;;;4.70;4.17;;;20.70;99.90;;;;;;5061466;28;20541;-73
2022/08/03 02:20:02;;;;;;;7.23;5.70;;;20.70;99.90;;;;;;5063518;28;20445;-72
2022/08/03 02:22:29;;;;;;;6.87;5.00;;;20.70;99.90;;;;;;5060924;28;20456;-72
2022/08/03 02:24:56;;;;;;;9.17;4.90;;;20.70;99.90;;;;;;5068968;28;20475;-74
2022/08/03 02:27:25;;;;;;;5.87;5.27;;;20.70;99.90;;;;;;5063480;28;20467;-74
2022/08/03 02:29:55;;;;;;;5.53;5.00;;;20.60;99.90;;;;;;5069881;28;20568;-72
2022/08/03 02:32:29;;;;;;;6.00;5.40;;;20.60;99.90;;;;;;5071909;28;20859;-73
2022/08/03 02:34:59;;;;;;;5.50;4.87;;;20.60;99.90;;;;;;5070345;28;20463;-74
2022/08/03 02:37:28;;;;;;;8.10;4.83;;;20.60;99.90;;;;;;5072672;28;20452;-73
2022/08/03 02:40:01;;;;;;;5.73;4.87;;;20.60;99.90;;;;;;5060692;28;20443;-73
2022/08/03 02:42:29;;;;;;;6.73;5.60;;;20.50;99.90;;;;;;5070142;28;20455;-73
2022/08/03 02:44:59;;;;;;;6.13;5.53;;;20.50;99.90;;;;;;5068458;28;20468;-72
2022/08/03 02:47:28;;;;;;;7.30;6.00;;;20.50;99.90;;;;;;5065601;28;20498;-73
2022/08/03 02:49:58;;;;;;;6.53;4.70;;;20.40;99.90;;;;;;5072122;28;20481;-73
2022/08/03 02:52:28;;;;;;;7.67;6.87;;;20.30;99.90;;;;;;5072581;28;20459;-73
2022/08/03 02:54:59;;;;;;;10.13;5.67;;;20.40;99.90;;;;;;5069131;28;20487;-73
2022/08/03 02:57:28;;;;;;;4.60;4.23;;;20.30;99.90;;;;;;5071004;28;20485;-73
2022/08/03 02:59:56;;;;;;;8.60;6.23;;;20.40;99.90;;;;;;5072059;28;20508;-72
2022/08/03 03:02:25;;;;;;;6.50;5.40;;;20.40;99.90;;;;;;5074275;28;20532;-74
2022/08/03 03:04:55;;;;;;;6.40;5.80;;;20.40;99.90;;;;;;5073283;28;20555;-73
2022/08/03 03:07:23;;;;;;;10.90;6.80;;;20.30;99.90;;;;;;5072642;28;20972;-73
2022/08/03 03:09:50;;;;;;;5.93;5.43;;;20.20;99.90;;;;;;5068617;28;20493;-73
2022/08/03 03:12:18;;;;;;;6.10;5.00;;;20.20;99.90;;;;;;5072782;28;20449;-73
2022/08/03 03:14:45;;;;;;;11.07;5.93;;;20.30;99.90;;;;;;5072516;28;20578;-73
2022/08/03 03:17:14;;;;;;;10.23;6.37;;;20.30;99.90;;;;;;5059292;28;20456;-73
2022/08/03 03:19:44;;;;;;;7.70;6.03;;;20.20;99.90;;;;;;5071739;28;20448;-74
2022/08/03 03:22:11;;;;;;;6.07;5.47;;;20.20;99.90;;;;;;5072216;28;20997;-74
2022/08/03 03:24:41;;;;;;;9.23;6.40;;;20.20;99.90;;;;;;5062758;28;20809;-73
2022/08/03 03:27:09;;;;;;;6.30;5.50;;;20.20;99.90;;;;;;5061370;28;20446;-73
2022/08/03 03:29:37;;;;;;;12.77;6.50;;;20.20;99.90;;;;;;5063719;28;20488;-73
2022/08/03 03:32:04;;;;;;;7.07;6.37;;;20.20;99.90;;;;;;5072064;28;20474;-74
2022/08/03 03:34:32;;;;;;;7.10;5.80;;;20.30;99.90;;;;;;5075519;28;20463;-74
2022/08/03 03:36:59;;;;;;;6.57;5.97;;;20.30;99.90;;;;;;5084193;28;20549;-75
2022/08/03 03:39:27;;;;;;;6.80;6.30;;;20.20;99.90;;;;;;5081175;28;20532;-74
2022/08/03 03:41:56;;;;;;;6.20;5.70;;;20.30;99.90;;;;;;5075760;28;20439;-74
2022/08/03 03:44:27;;;;;;;7.10;6.37;;;20.30;99.90;;;;;;5066421;28;20479;-74
2022/08/03 03:46:54;;;;;;;8.30;5.97;;;20.30;99.90;;;;;;5073448;28;20452;-72
2022/08/03 03:49:21;;;;;;;9.40;5.70;;;20.20;99.90;;;;;;5072151;28;20574;-72
2022/08/03 03:51:48;;;;;;;7.93;7.23;;;20.20;99.90;;;;;;5070719;28;21061;-73
2022/08/03 03:54:15;;;;;;;7.10;6.40;;;20.20;99.90;;;;;;5065574;28;20470;-72
2022/08/03 03:56:42;;;;;;;8.13;6.43;;;20.20;99.90;;;;;;5070932;28;20481;-72
2022/08/03 03:59:10;;;;;;;10.30;6.33;;;20.20;99.90;;;;;;5060488;28;20442;-73
2022/08/03 04:01:38;;;;;;;10.83;6.60;;;20.20;99.90;;;;;;5066591;28;20474;-73
2022/08/03 04:12:19;;;;;;;7.90;5.70;;;20.30;99.90;;;;;;5056103;28;20442;-72
2022/08/03 04:14:49;;;;;;;7.07;6.00;;;20.40;99.90;;;;;;5066197;28;20869;-72
2022/08/03 04:17:17;;;;;;;7.00;6.33;;;20.40;99.90;;;;;;5057319;28;20526;-75
2022/08/03 04:19:47;;;;;;;7.50;6.80;;;20.50;99.90;;;;;;5057205;28;20441;-73
2022/08/03 04:22:18;;;;;;;7.33;6.63;;;20.50;99.90;;;;;;5064342;28;20480;-73
2022/08/03 04:24:48;;;;;;;7.80;6.07;;;20.50;99.90;;;;;;5059855;28;20475;-73
2022/08/03 04:27:20;;;;;;;8.20;6.87;;;20.60;99.90;;;;;;5057246;28;20526;-73
2022/08/03 04:29:53;;;;;;;8.10;6.47;;;20.60;99.90;;;;;;5065601;28;20524;-73
2022/08/03 04:32:23;;;;;;;7.30;6.10;;;20.70;99.90;;;;;;5060296;28;20514;-74
2022/08/03 04:34:53;;;;;;;7.30;6.23;;;20.80;99.90;;;;;;5060861;28;20982;-73
2022/08/03 04:37:29;;;;;;;10.10;6.40;;;20.80;99.90;;;;;;5058143;28;20453;-73
2022/08/03 04:39:59;;;;;;;11.13;5.93;;;20.80;99.90;;;;;;5044115;28;20480;-74
2022/08/03 04:42:28;;;;;;;10.20;7.13;;;20.80;99.90;;;;;;5066447;28;20486;-73
2022/08/03 04:44:57;;;;;;;8.27;6.70;;;21.00;99.90;;;;;;5060710;28;20508;-74
2022/08/03 04:47:25;;;;;;;7.33;6.40;;;21.20;99.90;;;;;;5066970;28;20891;-74
2022/08/03 04:49:53;;;;;;;8.60;6.83;;;21.80;99.90;;;;;;5062847;28;20594;-73
2022/08/03 04:52:20;;;;;;;7.07;6.43;;;22.60;99.90;;;;;;5059887;28;20457;-73
2022/08/03 04:54:48;;;;;;;6.07;5.57;;;23.50;99.90;;;;;;5070673;28;20544;-74
2022/08/03 04:57:15;;;;;;;6.47;5.83;;;24.40;99.90;;;;;;5068672;28;20779;-74
2022/08/03 04:59:42;;;;;;;8.27;6.23;;;25.20;99.90;;;;;;5059285;28;21103;-75
2022/08/03 05:02:10;;;;;;;7.23;6.53;;;25.60;99.90;;;;;;5058730;28;20445;-72
2022/08/03 05:04:39;;;;;;;9.70;5.77;;;26.10;99.90;;;;;;5065213;28;20469;-75
2022/08/03 05:07:06;;;;;;;6.57;5.90;;;26.70;99.50;;;;;;5073525;28;20453;-75
2022/08/03 05:09:35;;;;;;;6.23;5.37;;;27.50;97.50;;;;;;5071586;28;20492;-75
2022/08/03 05:12:02;;;;;;;11.07;6.67;;;28.30;95.70;;;;;;5067971;28;20455;-74
2022/08/03 05:14:29;;;;;;;5.40;4.87;;;28.60;94.10;;;;;;5073596;28;20897;-74
2022/08/03 05:16:56;;;;;;;11.17;5.63;;;29.30;92.10;;;;;;5054851;28;20446;-74
2022/08/03 05:19:24;;;;;;;8.00;5.20;;;29.90;91.30;;;;;;5055292;28;20452;-74
2022/08/03 05:21:51;;;;;;;6.63;6.03;;;29.90;90.00;;;;;;5059565;28;20529;-74
2022/08/03 05:24:18;;;;;;;7.37;4.53;;;30.40;90.00;;;;;;5072575;28;20471;-74
2022/08/03 05:26:46;;;;;;;8.13;5.03;;;30.70;87.70;;;;;;5062017;28;20473;-74
2022/08/03 05:29:13;;;;;;;10.00;4.50;;;31.30;86.30;;;;;;5067484;28;20452;-74
2022/08/03 05:31:40;;;;;;;6.30;5.60;;;31.70;83.90;;;;;;5062558;28;20456;-73
2022/08/03 05:34:06;;;;;;;4.87;4.37;;;31.80;82.50;;;;;;5067416;28;20465;-72
2022/08/03 05:36:35;;;;;;;5.80;4.70;;;32.40;82.20;;;;;;5074277;28;20978;-74
2022/08/03 05:39:02;;;;;;;5.60;5.07;;;33.00;80.20;;;;;;5075145;28;20491;-73
2022/08/03 05:41:29;;;;;;;5.20;4.70;;;33.30;78.60;;;;;;5064351;28;20479;-73
2022/08/03 05:43:56;;;;;;;5.73;4.90;;;33.40;78.90;;;;;;5061509;28;20500;-73
2022/08/03 05:46:23;;;;;;;9.90;4.73;;;33.60;77.70;;;;;;5066134;28;20445;-73
2022/08/03 05:48:51;;;;;;;5.63;5.10;;;33.70;76.60;;;;;;5066436;28;20541;-72
2022/08/03 05:51:18;;;;;;;11.83;7.90;;;33.10;76.90;;;;;;5063005;28;20487;-73
2022/08/03 05:53:46;;;;;;;7.50;6.13;;;33.50;77.80;;;;;;5060577;28;20497;-74
2022/08/03 05:56:13;;;;;;;6.27;5.40;;;33.40;76.30;;;;;;5063396;28;20437;-73
2022/08/03 05:58:40;;;;;;;6.40;4.67;;;33.40;76.70;;;;;;5068593;28;20451;-72
2022/08/03 06:01:07;;;;;;;10.23;5.60;;;33.50;76.40;;;;;;5067785;28;20464;-71
2022/08/03 06:03:34;;;;;;;6.80;5.20;;;33.10;76.50;;;;;;5065517;28;20492;-72
2022/08/03 06:06:01;;;;;;;6.73;5.03;;;32.80;76.90;;;;;;5064701;28;20624;-73
2022/08/03 06:08:28;;;;;;;6.00;5.00;;;32.40;78.30;;;;;;5062742;28;20442;-76
2022/08/03 06:10:56;;;;;;;10.90;4.90;;;32.20;78.10;;;;;;5060463;28;20473;-74
2022/08/03 06:13:23;;;;;;;6.17;5.00;;;32.20;79.10;;;;;;5067992;28;20461;-72
2022/08/03 06:15:50;;;;;;;6.37;4.70;;;32.80;78.90;;;;;;5065961;28;20899;-74
2022/08/03 06:18:17;;;;;;;8.67;7.13;;;33.30;76.90;;;;;;5061465;28;20438;-74
2022/08/03 06:20:44;;;;;;;7.90;5.47;;;33.60;76.00;;;;;;5066196;28;20492;-76
2022/08/03 06:23:11;;;;;;;11.60;10.03;;;33.60;76.40;;;;;;5062683;28;20464;-74
2022/08/03 06:25:39;;;;;;;9.00;6.57;;;33.30;75.80;;;;;;5065983;28;20523;-74
2022/08/03 06:28:07;;;;;;;8.77;5.80;;;33.40;75.20;;;;;;5067019;28;20437;-75
2022/08/03 06:30:35;;;;;;;8.67;5.57;;;33.10;76.20;;;;;;5056525;28;20573;-76
2022/08/03 06:33:02;;;;;;;9.23;7.83;;;33.00;76.30;;;;;;5077532;28;20534;-73
2022/08/03 06:35:29;;;;;;;13.67;12.20;;;32.80;76.60;;;;;;5067123;28;20480;-75
2022/08/03 06:37:57;;;;;;;9.07;7.57;;;32.80;77.40;;;;;;5062493;28;20502;-76
2022/08/03 06:40:29;;;;;;;8.53;4.47;;;33.40;76.90;;;;;;5058905;28;20445;-75
2022/08/03 06:42:58;;;;;;;8.23;4.90;;;34.40;75.70;;;;;;5061825;28;20476;-76
2022/08/03 06:45:28;;;;;;;8.60;5.03;;;34.60;73.00;;;;;;5065645;28;20448;-75
2022/08/03 06:48:01;;;;;;;5.50;4.13;;;35.30;72.80;;;;;;5070917;28;20469;-74
2022/08/03 06:50:28;;;;;;;10.33;4.30;;;35.60;72.20;;;;;;5071776;28;20563;-75
2022/08/03 06:52:56;;;;;;;5.87;4.43;;;35.80;71.10;;;;;;5060786;28;20504;-76
2022/08/03 06:55:23;;;;;;;4.50;4.10;;;35.50;71.70;;;;;;5071660;28;20445;-76
2022/08/03 06:57:50;;;;;;;8.47;4.57;;;35.80;71.30;;;;;;5064376;28;20477;-74
2022/08/03 07:00:17;;;;;;;9.10;4.70;;;35.70;71.40;;;;;;5064554;28;20499;-77
2022/08/03 07:02:46;;;;;;;8.07;4.30;;;35.70;71.20;;;;;;5065814;28;20461;-74
2022/08/03 07:05:14;;;;;;;3.90;3.40;;;35.60;71.10;;;;;;5065082;28;20433;-76
2022/08/03 07:07:41;;;;;;;7.70;3.67;;;35.20;71.50;;;;;;5076193;28;20526;-77
2022/08/03 07:10:11;;;;;;;6.40;4.80;;;35.10;72.60;;;;;;5065512;28;20512;-78
2022/08/03 07:12:39;;;;;;;13.03;5.27;;;35.00;72.80;;;;;;5061248;28;20932;-79
2022/08/03 07:15:07;;;;;;;11.10;10.03;;;35.10;72.60;;;;;;5064406;28;20465;-77
2022/08/03 07:17:36;;;;;;;25.53;19.17;;;35.30;72.60;;;;;;5066034;28;20509;-77
2022/08/03 07:20:06;;;;;;;6.37;3.80;;;35.30;72.00;;;;;;5070242;28;20477;-78
2022/08/03 07:22:34;;;;;;;6.33;4.40;;;35.10;73.30;;;;;;5064177;28;20971;-76
2022/08/03 07:25:01;;;;;;;16.83;14.03;;;35.60;72.70;;;;;;5057526;28;20545;-77
2022/08/03 07:27:29;;;;;;;5.40;3.87;;;35.90;71.90;;;;;;5071410;28;20449;-76
2022/08/03 07:29:58;;;;;;;5.77;4.90;;;35.50;72.20;;;;;;5060419;28;20484;-78
2022/08/03 07:32:25;;;;;;;5.27;3.50;;;35.10;73.30;;;;;;5063403;28;20768;-79
2022/08/03 07:34:52;;;;;;;4.93;3.00;;;35.60;72.40;;;;;;5062443;28;20516;-77
2022/08/03 07:37:20;;;;;;;6.13;4.03;;;35.80;72.60;;;;;;5073060;28;20455;-78
2022/08/03 07:39:47;;;;;;;7.00;4.30;;;35.70;71.60;;;;;;5069573;28;20532;-76
2022/08/03 07:42:14;;;;;;;14.50;4.60;;;36.00;72.70;;;;;;5066429;28;20449;-78
2022/08/03 07:44:42;;;;;;;8.80;3.80;;;36.00;71.60;;;;;;5072007;28;20473;-76
2022/08/03 07:47:09;;;;;;;9.33;3.87;;;35.50;72.80;;;;;;5075849;28;20509;-78
2022/08/03 07:49:40;;;;;;;4.27;2.77;;;35.20;72.60;;;;;;5085867;28;20477;-78
2022/08/03 07:54:53;;;;;;;4.40;3.90;;;34.30;74.00;;;;;;5066525;28;20995;-76
2022/08/03 07:57:20;;;;;;;3.97;2.63;;;34.30;74.60;;;;;;5075023;28;20467;-77
2022/08/03 07:59:48;;;;;;;5.70;4.17;;;33.90;75.50;;;;;;5070324;28;20535;-77
2022/08/03 08:02:15;;;;;;;6.10;2.87;;;33.30;75.90;;;;;;5072934;28;20498;-77
2022/08/03 08:04:42;;;;;;;7.40;5.03;;;33.00;77.60;;;;;;5078851;28;20469;-75
2022/08/03 08:07:09;;;;;;;7.33;3.73;;;33.10;78.60;;;;;;5071251;28;20532;-78
2022/08/03 08:09:39;;;;;;;4.43;3.00;;;33.40;77.70;;;;;;5069398;28;20438;-78
2022/08/03 08:12:08;;;;;;;7.03;5.20;;;34.20;76.40;;;;;;5061155;28;20484;-76
2022/08/03 08:14:35;;;;;;;4.63;3.63;;;34.60;74.60;;;;;;5070763;28;20481;-77
2022/08/03 08:17:02;;;;;;;7.90;5.10;;;34.30;74.20;;;;;;5073254;28;20517;-76
2022/08/03 08:19:29;;;;;;;8.83;4.30;;;34.60;74.30;;;;;;5062689;28;20450;-77
2022/08/03 08:21:56;;;;;;;7.00;3.80;;;34.70;74.10;;;;;;5075952;28;21002;-77
2022/08/03 08:24:23;;;;;;;7.83;3.20;;;34.40;74.60;;;;;;5065773;28;21000;-75
2022/08/03 08:26:50;;;;;;;7.90;5.50;;;33.90;74.70;;;;;;5065791;28;20454;-78
2022/08/03 08:29:22;;;;;;;14.07;8.43;;;34.10;75.40;;;;;;5069995;28;20532;-76
2022/08/03 08:31:49;;;;;;;4.00;3.60;;;33.80;76.10;;;;;;5059839;28;20856;-77
2022/08/03 08:34:16;;;;;;;12.67;5.20;;;33.30;75.90;;;;;;5071408;28;20469;-78
2022/08/03 08:36:43;;;;;;;4.70;3.00;;;33.10;77.00;;;;;;5069231;28;20486;-76
2022/08/03 08:39:11;;;;;;;9.03;4.50;;;33.20;78.00;;;;;;5068459;28;20525;-76
2022/08/03 08:41:38;;;;;;;4.63;2.23;;;33.40;77.50;;;;;;5071408;28;20507;-77
2022/08/03 08:44:06;;;;;;;4.63;2.37;;;33.50;76.70;;;;;;5074629;28;20465;-77
2022/08/03 08:46:36;;;;;;;5.20;3.03;;;33.60;76.50;;;;;;5072467;28;20940;-78
2022/08/03 08:49:03;;;;;;;5.80;3.87;;;34.30;76.00;;;;;;5062291;28;20971;-76
2022/08/03 08:51:33;;;;;;;3.03;2.60;;;35.20;74.90;;;;;;5058944;28;20902;-76
2022/08/03 08:54:03;;;;;;;5.43;2.70;;;35.90;73.10;;;;;;5059661;28;20482;-77
2022/08/03 08:56:32;;;;;;;20.90;18.67;;;36.70;71.50;;;;;;5071365;28;20524;-77
2022/08/03 08:59:01;;;;;;;7.83;5.93;;;36.40;70.50;;;;;;5073280;28;20445;-76
2022/08/03 09:01:29;;;;;;;6.80;3.90;;;35.60;70.30;;;;;;5055489;28;20462;-76
2022/08/03 09:03:57;;;;;;;57.13;47.90;;;35.20;71.90;;;;;;5056322;28;20703;-77
2022/08/03 09:06:24;;;;;;;4.43;4.03;;;35.10;72.50;;;;;;5063189;28;20476;-77
2022/08/03 09:08:51;;;;;;;18.27;4.20;;;35.10;73.10;;;;;;5057025;28;20448;-79
2022/08/03 09:11:22;;;;;;;5.80;2.93;;;34.70;72.70;;;;;;5063455;28;20559;-77
2022/08/03 09:13:49;;;;;;;6.03;3.83;;;35.10;72.90;;;;;;5069622;28;21036;-77
2022/08/03 09:16:21;;;;;;;6.23;3.13;;;35.70;72.30;;;;;;5060380;28;20518;-77
2022/08/03 09:18:50;;;;;;;4.83;2.77;;;35.20;71.50;;;;;;5058525;28;20525;-76
2022/08/03 09:21:21;;;;;;;6.87;2.43;;;35.00;72.90;;;;;;5057385;28;20938;-76
2022/08/03 09:23:50;;;;;;;7.90;2.50;;;35.50;71.10;;;;;;5061806;28;20461;-77
2022/08/03 09:26:21;;;;;;;3.97;2.30;;;35.40;71.30;;;;;;5062976;28;20438;-78
2022/08/03 09:28:56;;;;;;;4.30;2.90;;;35.70;71.10;;;;;;5062600;28;20445;-78
2022/08/03 09:31:34;;;;;;;4.90;2.20;;;35.90;70.40;;;;;;5058403;28;20900;-77
2022/08/03 09:34:03;;;;;;;8.23;2.80;;;35.60;70.50;;;;;;5056636;28;20466;-76
2022/08/03 09:36:39;;;;;;;3.60;2.80;;;34.70;70.90;;;;;;5067242;28;20469;-76
2022/08/03 09:39:09;;;;;;;3.87;2.40;;;34.80;72.10;;;;;;5066290;28;20886;-77
2022/08/03 09:41:40;;;;;;;9.23;2.80;;;35.00;72.00;;;;;;5059456;28;20438;-75
2022/08/03 09:44:08;;;;;;;7.43;3.10;;;34.10;72.30;;;;;;5056252;28;20472;-78
2022/08/03 09:46:49;;;;;;;7.00;2.40;;;33.90;74.00;;;;;;5054761;28;20947;-77
2022/08/03 09:49:16;;;;;;;4.30;2.40;;;34.20;73.80;;;;;;5056190;28;20433;-77
2022/08/03 09:51:45;;;;;;;6.73;2.73;;;34.30;72.90;;;;;;5062353;28;20478;-78
2022/08/03 09:54:13;;;;;;;7.33;2.53;;;34.30;73.00;;;;;;5073216;28;20846;-78
2022/08/03 09:56:41;;;;;;;5.90;2.80;;;34.00;73.30;;;;;;5069991;28;20446;-76
2022/08/03 09:59:09;;;;;;;3.67;2.33;;;33.60;74.10;;;;;;5064403;28;20484;-77
2022/08/03 10:01:37;;;;;;;3.77;3.00;;;34.00;74.40;;;;;;5067806;28;20534;-77
2022/08/03 10:04:04;;;;;;;2.90;2.07;;;33.80;74.10;;;;;;5079699;28;20473;-76
2022/08/03 10:06:32;;;;;;;6.40;2.80;;;33.90;73.80;;;;;;5086653;28;20500;-76
2022/08/03 10:09:09;;;;;;;4.60;2.20;;;34.30;74.00;;;;;;5076161;28;20528;-76
2022/08/03 10:11:36;;;;;;;5.47;2.27;;;34.90;72.50;;;;;;5063995;28;20483;-76
2022/08/03 10:14:05;;;;;;;6.70;2.80;;;35.10;71.20;;;;;;5073247;28;20995;-75
2022/08/03 10:16:36;;;;;;;4.73;2.57;;;34.80;70.40;;;;;;5071092;28;20507;-76
2022/08/03 10:19:04;;;;;;;6.43;2.47;;;35.00;70.90;;;;;;5070051;28;20537;-77
2022/08/03 10:21:34;;;;;;;8.00;2.80;;;34.60;71.00;;;;;;5060148;28;20529;-77
2022/08/03 10:24:04;;;;;;;5.70;2.20;;;34.60;71.10;;;;;;5059241;28;20488;-77
2022/08/03 10:26:35;;;;;;;7.43;2.00;;;34.50;71.50;;;;;;5073459;28;20445;-77
2022/08/03 10:29:06;;;;;;;5.90;2.17;;;35.00;71.00;;;;;;5063761;28;20459;-76
2022/08/03 10:31:39;;;;;;;4.83;2.30;;;35.10;70.70;;;;;;5062788;28;20504;-76
2022/08/03 10:34:12;;;;;;;4.40;3.30;;;34.90;70.30;;;;;;5064454;28;20461;-77
2022/08/03 10:36:41;;;;;;;4.20;2.27;;;34.70;70.80;;;;;;5077658;28;20448;-78
2022/08/03 10:39:10;;;;;;;3.27;2.97;;;34.60;70.60;;;;;;5074260;28;20445;-73
2022/08/03 10:41:41;;;;;;;4.27;2.40;;;34.70;70.60;;;;;;5072358;28;20825;-74
2022/08/03 10:44:12;;;;;;;9.83;2.27;;;34.80;71.00;;;;;;5071664;28;20465;-73
2022/08/03 10:46:40;;;;;;;2.47;1.90;;;34.40;72.90;;;;;;5047694;28;20485;-74
2022/08/03 10:49:08;;;;;;;3.03;2.10;;;33.60;72.20;;;;;;5069551;28;20436;-75
2022/08/03 10:51:36;;;;;;;4.07;2.20;;;33.40;73.30;;;;;;5068523;28;20553;-74
2022/08/03 10:54:03;;;;;;;4.73;3.00;;;33.30;73.80;;;;;;5065825;28;20476;-74
2022/08/03 10:59:59;;;;;;;4.60;2.40;;;32.70;75.30;;;;;;5063933;28;20427;-75
2022/08/03 11:02:59;;;;;;;3.93;2.47;;;32.90;75.50;;;;;;5055756;28;20446;-76
2022/08/03 11:05:28;;;;;;;8.30;2.93;;;33.10;75.30;;;;;;5057764;28;20442;-75
2022/08/03 11:08:28;;;;;;;12.40;2.90;;;33.00;75.30;;;;;;5066650;28;20445;-74
2022/08/03 11:10:57;;;;;;;13.07;2.53;;;33.00;75.60;;;;;;5058957;28;20532;-75
2022/08/03 11:13:32;;;;;;;4.23;3.20;;;33.00;75.30;;;;;;5055820;28;20991;-75
2022/08/03 11:16:03;;;;;;;4.40;2.20;;;32.80;75.60;;;;;;5041798;28;20938;-73
2022/08/03 11:18:30;;;;;;;4.37;1.73;;;32.70;76.40;;;;;;5060939;28;20549;-74
2022/08/03 11:20:58;;;;;;;10.60;3.20;;;32.80;75.60;;;;;;5060379;28;20874;-76
2022/08/03 11:23:43;;;;;;;7.17;2.70;;;32.30;75.70;;;;;;5054783;28;20541;-75
2022/08/03 11:26:12;;;;;;;6.37;2.77;;;32.20;76.60;;;;;;5056099;28;20481;-75
2022/08/03 11:28:41;;;;;;;7.33;2.80;;;32.30;76.80;;;;;;5057093;28;20481;-74
2022/08/03 11:31:48;;;;;;;4.63;2.60;;;32.20;77.10;;;;;;5054136;28;20565;-75
2022/08/03 11:34:16;;;;;;;4.30;2.70;;;32.20;76.50;;;;;;5054166;28;20500;-74
2022/08/03 11:37:21;;;;;;;5.03;2.67;;;32.30;77.30;;;;;;5058913;28;20460;-75
2022/08/03 11:39:51;;;;;;;3.10;2.10;;;32.40;76.60;;;;;;5054909;28;20604;-74
2022/08/03 11:42:49;;;;;;;6.60;2.70;;;32.30;76.40;;;;;;5057512;28;20438;-75
2022/08/03 11:45:18;;;;;;;9.23;3.00;;;32.50;76.50;;;;;;5057136;28;20456;-76
2022/08/03 11:47:46;;;;;;;14.13;2.90;;;32.60;76.60;;;;;;5055101;28;20442;-74
2022/08/03 11:50:15;;;;;;;3.30;2.20;;;32.40;75.60;;;;;;5057702;28;20452;-76
2022/08/03 11:52:43;;;;;;;4.90;2.60;;;32.10;76.10;;;;;;5059444;28;20485;-75
2022/08/03 11:55:15;;;;;;;4.57;2.77;;;32.40;76.10;;;;;;5061083;28;20477;-74
2022/08/03 11:57:45;;;;;;;4.20;2.80;;;32.50;75.60;;;;;;5061297;28;20489;-74
2022/08/03 12:00:28;;;;;;;12.27;2.60;;;32.30;74.20;;;;;;5056509;28;20504;-75
2022/08/03 12:03:00;;;;;;;6.40;2.30;;;32.30;74.60;;;;;;5062290;28;20442;-75
2022/08/03 12:05:52;;;;;;;5.97;2.30;;;32.50;74.10;;;;;;5065116;28;20564;-75
2022/08/03 12:08:30;;;;;;;10.93;2.63;;;32.30;75.20;;;;;;5037713;28;20546;-75
2022/08/03 12:10:58;;;;;;;6.30;2.37;;;32.40;75.70;;;;;;5057645;28;20537;-75
2022/08/03 12:13:25;;;;;;;8.50;2.73;;;32.40;75.20;;;;;;5057112;28;20552;-75
2022/08/03 12:15:55;;;;;;;4.50;2.30;;;32.60;75.10;;;;;;5063286;28;20468;-74
2022/08/03 12:18:23;;;;;;;10.60;5.17;;;32.60;76.00;;;;;;5059576;28;20536;-76
2022/08/03 12:20:52;;;;;;;8.03;3.00;;;32.70;75.10;;;;;;5067713;28;20540;-76
2022/08/03 12:23:19;;;;;;;7.47;2.10;;;32.70;74.80;;;;;;5064561;28;20468;-74
2022/08/03 12:25:47;;;;;;;5.33;2.67;;;32.30;75.00;;;;;;5066044;28;20802;-74
2022/08/03 12:28:17;;;;;;;4.37;2.40;;;32.20;75.60;;;;;;5065729;28;20465;-75
2022/08/03 12:30:46;;;;;;;6.77;2.60;;;32.20;75.60;;;;;;5066704;28;20454;-75
2022/08/03 12:33:18;;;;;;;4.80;2.20;;;32.10;75.50;;;;;;5085584;28;20544;-75
2022/08/03 12:35:46;;;;;;;5.03;2.60;;;32.10;75.60;;;;;;5067162;28;20468;-75
2022/08/03 12:38:13;;;;;;;7.43;3.10;;;32.10;76.70;;;;;;5055676;28;20434;-75
2022/08/03 12:40:41;;;;;;;9.50;3.53;;;32.10;76.10;;;;;;5062352;28;20521;-75
2022/08/03 12:43:12;;;;;;;6.30;2.50;;;32.10;76.30;;;;;;5073825;28;20625;-74
2022/08/03 12:45:40;;;;;;;6.17;2.30;;;32.10;75.80;;;;;;5074243;28;20441;-73
2022/08/03 12:48:10;;;;;;;6.13;2.60;;;32.10;76.20;;;;;;5069261;28;20540;-75
2022/08/03 12:50:40;;;;;;;3.90;2.70;;;32.20;76.20;;;;;;5058603;28;20455;-73
2022/08/03 12:53:09;;;;;;;5.30;2.60;;;32.20;76.00;;;;;;5065492;28;20491;-75
2022/08/03 12:55:37;;;;;;;6.77;2.30;;;32.30;75.90;;;;;;5071430;28;20485;-75
2022/08/03 12:58:06;;;;;;;3.67;2.00;;;32.20;75.90;;;;;;5070566;28;20445;-75
2022/08/03 13:00:34;;;;;;;4.07;2.30;;;32.30;76.20;;;;;;5058040;28;20533;-73
2022/08/03 13:03:02;;;;;;;4.83;2.40;;;32.30;76.10;;;;;;5073480;28;20892;-75
2022/08/03 13:05:30;;;;;;;7.50;2.70;;;32.30;75.50;;;;;;5062821;28;20450;-74
2022/08/03 13:07:59;;;;;;;3.63;2.07;;;32.40;75.70;;;;;;5074002;28;20831;-75
2022/08/03 13:10:31;;;;;;;3.50;1.80;;;32.30;74.70;;;;;;5067233;28;20808;-75
2022/08/03 13:13:02;;;;;;;5.13;1.77;;;31.80;75.10;;;;;;5060404;28;20615;-74